sensor_id;sensor_type;location;lat;lon;timestamp;pressure;altitude;pressure_sealevel;temperature;humidity
76868;BME280;66168;45.478;11.060;2024-02-23T00:02:14;99527.98;;;11.56;75.62
76868;BME280;66168;45.478;11.060;2024-02-23T00:04:41;99530.37;;;11.58;75.49
76868;BME280;66168;45.478;11.060;2024-02-23T00:07:08;99525.73;;;11.58;75.51
76868;BME280;66168;45.478;11.060;2024-02-23T00:09:35;99516.84;;;11.57;75.28
76868;BME280;66168;45.478;11.060;2024-02-23T00:12:02;99506.35;;;11.56;75.37
76868;BME280;66168;45.478;11.060;2024-02-23T00:14:30;99497.23;;;11.55;75.35
76868;BME280;66168;45.478;11.060;2024-02-23T00:17:03;99489.23;;;11.56;75.23
76868;BME280;66168;45.478;11.060;2024-02-23T00:19:30;99484.77;;;11.58;74.92
76868;BME280;66168;45.478;11.060;2024-02-23T00:21:57;99476.98;;;11.59;74.88
76868;BME280;66168;45.478;11.060;2024-02-23T00:24:26;99478.79;;;11.59;74.91
76868;BME280;66168;45.478;11.060;2024-02-23T00:26:54;99478.46;;;11.57;74.93
76868;BME280;66168;45.478;11.060;2024-02-23T00:29:20;99474.33;;;11.57;74.79
76868;BME280;66168;45.478;11.060;2024-02-23T00:31:48;99466.83;;;11.55;74.52
76868;BME280;66168;45.478;11.060;2024-02-23T00:34:15;99458.52;;;11.53;74.62
76868;BME280;66168;45.478;11.060;2024-02-23T00:36:42;99457.60;;;11.51;74.32
76868;BME280;66168;45.478;11.060;2024-02-23T00:39:11;99448.33;;;11.49;74.16
76868;BME280;66168;45.478;11.060;2024-02-23T00:41:38;99448.88;;;11.48;74.22
76868;BME280;66168;45.478;11.060;2024-02-23T00:44:05;99451.46;;;11.46;74.03
76868;BME280;66168;45.478;11.060;2024-02-23T00:46:32;99451.58;;;11.46;74.20
76868;BME280;66168;45.478;11.060;2024-02-23T00:49:00;99450.59;;;11.47;74.15
76868;BME280;66168;45.478;11.060;2024-02-23T00:51:27;99442.04;;;11.47;73.86
76868;BME280;66168;45.478;11.060;2024-02-23T00:53:54;99439.59;;;11.47;74.09
76868;BME280;66168;45.478;11.060;2024-02-23T00:56:21;99437.94;;;11.47;73.97
76868;BME280;66168;45.478;11.060;2024-02-23T00:58:58;99430.70;;;11.46;73.94
76868;BME280;66168;45.478;11.060;2024-02-23T01:01:25;99428.08;;;11.46;73.94
76868;BME280;66168;45.478;11.060;2024-02-23T01:03:53;99427.19;;;11.46;74.15
76868;BME280;66168;45.478;11.060;2024-02-23T01:06:21;99427.02;;;11.46;74.05
76868;BME280;66168;45.478;11.060;2024-02-23T01:08:48;99417.99;;;11.47;74.02
76868;BME280;66168;45.478;11.060;2024-02-23T01:11:14;99405.31;;;11.46;73.61
76868;BME280;66168;45.478;11.060;2024-02-23T01:13:41;99396.73;;;11.43;73.63
76868;BME280;66168;45.478;11.060;2024-02-23T01:16:08;99392.31;;;11.39;73.77
76868;BME280;66168;45.478;11.060;2024-02-23T01:18:35;99385.20;;;11.36;73.89
76868;BME280;66168;45.478;11.060;2024-02-23T01:21:02;99382.84;;;11.36;73.95
76868;BME280;66168;45.478;11.060;2024-02-23T01:23:29;99382.34;;;11.37;73.89
76868;BME280;66168;45.478;11.060;2024-02-23T01:25:56;99374.39;;;11.38;73.47
76868;BME280;66168;45.478;11.060;2024-02-23T01:28:25;99371.65;;;11.37;73.67
76868;BME280;66168;45.478;11.060;2024-02-23T01:30:52;99359.31;;;11.38;73.77
76868;BME280;66168;45.478;11.060;2024-02-23T01:33:19;99352.98;;;11.38;73.44
76868;BME280;66168;45.478;11.060;2024-02-23T01:35:46;99346.33;;;11.39;73.23
76868;BME280;66168;45.478;11.060;2024-02-23T01:38:13;99337.16;;;11.40;73.39
76868;BME280;66168;45.478;11.060;2024-02-23T01:40:46;99323.71;;;11.41;73.59
76868;BME280;66168;45.478;11.060;2024-02-23T01:43:13;99321.83;;;11.43;73.24
76868;BME280;66168;45.478;11.060;2024-02-23T01:45:40;99323.05;;;11.43;73.27
76868;BME280;66168;45.478;11.060;2024-02-23T01:48:07;99316.55;;;11.41;73.17
76868;BME280;66168;45.478;11.060;2024-02-23T01:50:34;99313.31;;;11.40;72.62
76868;BME280;66168;45.478;11.060;2024-02-23T01:53:02;99302.48;;;11.39;72.79
76868;BME280;66168;45.478;11.060;2024-02-23T01:55:29;99292.65;;;11.38;72.72
76868;BME280;66168;45.478;11.060;2024-02-23T01:58:02;99287.83;;;11.37;72.56
76868;BME280;66168;45.478;11.060;2024-02-23T02:00:34;99277.15;;;11.35;72.87
76868;BME280;66168;45.478;11.060;2024-02-23T02:03:01;99278.50;;;11.34;73.10
76868;BME280;66168;45.478;11.060;2024-02-23T02:05:28;99277.85;;;11.35;73.01
76868;BME280;66168;45.478;11.060;2024-02-23T02:07:56;99277.92;;;11.36;72.93
76868;BME280;66168;45.478;11.060;2024-02-23T02:10:26;99276.36;;;11.36;72.75
76868;BME280;66168;45.478;11.060;2024-02-23T02:12:53;99273.88;;;11.34;72.50
76868;BME280;66168;45.478;11.060;2024-02-23T02:15:20;99263.08;;;11.33;72.46
76868;BME280;66168;45.478;11.060;2024-02-23T02:17:49;99271.88;;;11.32;72.62
76868;BME280;66168;45.478;11.060;2024-02-23T02:20:18;99276.55;;;11.32;72.91
76868;BME280;66168;45.478;11.060;2024-02-23T02:22:50;99265.91;;;11.32;72.66
76868;BME280;66168;45.478;11.060;2024-02-23T02:25:17;99270.96;;;11.29;72.53
76868;BME280;66168;45.478;11.060;2024-02-23T02:27:44;99275.52;;;11.28;72.92
76868;BME280;66168;45.478;11.060;2024-02-23T02:30:12;99269.98;;;11.28;72.99
76868;BME280;66168;45.478;11.060;2024-02-23T02:32:39;99271.84;;;11.26;72.92
76868;BME280;66168;45.478;11.060;2024-02-23T02:35:07;99264.92;;;11.25;73.21
76868;BME280;66168;45.478;11.060;2024-02-23T02:37:34;99259.73;;;11.25;73.09
76868;BME280;66168;45.478;11.060;2024-02-23T02:40:01;99260.14;;;11.26;73.09
76868;BME280;66168;45.478;11.060;2024-02-23T02:42:29;99252.98;;;11.27;72.87
76868;BME280;66168;45.478;11.060;2024-02-23T02:44:56;99247.23;;;11.27;72.90
76868;BME280;66168;45.478;11.060;2024-02-23T02:47:23;99239.19;;;11.28;72.64
76868;BME280;66168;45.478;11.060;2024-02-23T02:49:51;99235.60;;;11.28;72.74
76868;BME280;66168;45.478;11.060;2024-02-23T02:52:17;99228.95;;;11.27;72.54
76868;BME280;66168;45.478;11.060;2024-02-23T02:54:44;99213.39;;;11.26;72.77
76868;BME280;66168;45.478;11.060;2024-02-23T02:57:11;99207.28;;;11.26;72.82
76868;BME280;66168;45.478;11.060;2024-02-23T02:59:38;99206.52;;;11.28;72.90
76868;BME280;66168;45.478;11.060;2024-02-23T03:02:04;99202.10;;;11.29;72.77
76868;BME280;66168;45.478;11.060;2024-02-23T03:04:31;99194.64;;;11.29;72.19
76868;BME280;66168;45.478;11.060;2024-02-23T03:06:58;99192.89;;;11.29;72.04
76868;BME280;66168;45.478;11.060;2024-02-23T03:09:25;99187.77;;;11.28;71.99
76868;BME280;66168;45.478;11.060;2024-02-23T03:11:52;99178.70;;;11.26;71.94
76868;BME280;66168;45.478;11.060;2024-02-23T03:14:19;99182.25;;;11.28;72.27
76868;BME280;66168;45.478;11.060;2024-02-23T03:16:48;99177.98;;;11.28;72.10
76868;BME280;66168;45.478;11.060;2024-02-23T03:19:16;99174.49;;;11.26;72.21
76868;BME280;66168;45.478;11.060;2024-02-23T03:21:43;99168.43;;;11.26;71.86
76868;BME280;66168;45.478;11.060;2024-02-23T03:24:10;99168.87;;;11.27;72.20
76868;BME280;66168;45.478;11.060;2024-02-23T03:26:37;99161.20;;;11.29;72.11
76868;BME280;66168;45.478;11.060;2024-02-23T03:29:04;99173.61;;;11.28;71.90
76868;BME280;66168;45.478;11.060;2024-02-23T03:31:31;99167.82;;;11.26;71.88
76868;BME280;66168;45.478;11.060;2024-02-23T03:33:58;99171.69;;;11.23;72.32
76868;BME280;66168;45.478;11.060;2024-02-23T03:36:24;99165.48;;;11.24;72.07
76868;BME280;66168;45.478;11.060;2024-02-23T03:38:51;99149.11;;;11.25;72.25
76868;BME280;66168;45.478;11.060;2024-02-23T03:41:18;99149.11;;;11.26;72.22
76868;BME280;66168;45.478;11.060;2024-02-23T03:43:45;99134.86;;;11.26;71.92
76868;BME280;66168;45.478;11.060;2024-02-23T03:46:11;99134.31;;;11.28;71.65
76868;BME280;66168;45.478;11.060;2024-02-23T03:48:38;99128.28;;;11.29;71.79
76868;BME280;66168;45.478;11.060;2024-02-23T03:51:05;99128.79;;;11.32;71.87
76868;BME280;66168;45.478;11.060;2024-02-23T03:53:32;99132.79;;;11.33;72.02
76868;BME280;66168;45.478;11.060;2024-02-23T03:55:59;99115.71;;;11.34;71.70
76868;BME280;66168;45.478;11.060;2024-02-23T03:58:26;99123.40;;;11.35;71.86
76868;BME280;66168;45.478;11.060;2024-02-23T04:00:52;99118.08;;;11.36;71.90
76868;BME280;66168;45.478;11.060;2024-02-23T04:03:20;99114.84;;;11.36;72.05
76868;BME280;66168;45.478;11.060;2024-02-23T04:05:46;99132.70;;;11.35;71.94
76868;BME280;66168;45.478;11.060;2024-02-23T04:08:13;99142.92;;;11.35;72.01
76868;BME280;66168;45.478;11.060;2024-02-23T04:10:40;99137.63;;;11.33;72.12
76868;BME280;66168;45.478;11.060;2024-02-23T04:13:07;99133.25;;;11.32;72.27
76868;BME280;66168;45.478;11.060;2024-02-23T04:15:34;99121.77;;;11.29;72.18
76868;BME280;66168;45.478;11.060;2024-02-23T04:18:00;99120.53;;;11.25;72.34
76868;BME280;66168;45.478;11.060;2024-02-23T04:20:27;99121.59;;;11.22;72.71
76868;BME280;66168;45.478;11.060;2024-02-23T04:22:54;99111.89;;;11.21;73.62
76868;BME280;66168;45.478;11.060;2024-02-23T04:25:21;99109.33;;;11.19;73.92
76868;BME280;66168;45.478;11.060;2024-02-23T04:27:47;99106.70;;;11.20;73.52
76868;BME280;66168;45.478;11.060;2024-02-23T04:30:14;99094.31;;;11.22;73.48
76868;BME280;66168;45.478;11.060;2024-02-23T04:32:41;99090.55;;;11.24;73.51
76868;BME280;66168;45.478;11.060;2024-02-23T04:35:09;99089.98;;;11.26;73.57
76868;BME280;66168;45.478;11.060;2024-02-23T04:37:36;99060.98;;;11.28;73.59
76868;BME280;66168;45.478;11.060;2024-02-23T04:40:03;99061.71;;;11.29;73.75
76868;BME280;66168;45.478;11.060;2024-02-23T04:42:32;99072.03;;;11.29;73.39
76868;BME280;66168;45.478;11.060;2024-02-23T04:44:59;99062.55;;;11.31;72.67
76868;BME280;66168;45.478;11.060;2024-02-23T04:47:26;99054.27;;;11.33;72.62
76868;BME280;66168;45.478;11.060;2024-02-23T04:49:53;99059.00;;;11.34;72.40
76868;BME280;66168;45.478;11.060;2024-02-23T04:52:19;99059.27;;;11.37;72.41
76868;BME280;66168;45.478;11.060;2024-02-23T04:54:47;99060.23;;;11.38;72.24
76868;BME280;66168;45.478;11.060;2024-02-23T04:57:13;99034.20;;;11.42;72.04
76868;BME280;66168;45.478;11.060;2024-02-23T04:59:40;99036.52;;;11.43;71.85
76868;BME280;66168;45.478;11.060;2024-02-23T05:02:07;99050.84;;;11.44;71.82
76868;BME280;66168;45.478;11.060;2024-02-23T05:04:34;99050.52;;;11.46;71.92
76868;BME280;66168;45.478;11.060;2024-02-23T05:07:01;99045.61;;;11.47;71.82
76868;BME280;66168;45.478;11.060;2024-02-23T05:09:28;99032.86;;;11.48;71.53
76868;BME280;66168;45.478;11.060;2024-02-23T05:11:55;99047.14;;;11.49;71.45
76868;BME280;66168;45.478;11.060;2024-02-23T05:14:22;99051.52;;;11.49;71.42
76868;BME280;66168;45.478;11.060;2024-02-23T05:16:49;99051.67;;;11.49;71.60
76868;BME280;66168;45.478;11.060;2024-02-23T05:19:16;99051.42;;;11.51;71.79
76868;BME280;66168;45.478;11.060;2024-02-23T05:21:43;99041.13;;;11.52;71.65
76868;BME280;66168;45.478;11.060;2024-02-23T05:24:11;99039.70;;;11.55;71.38
76868;BME280;66168;45.478;11.060;2024-02-23T05:26:38;99035.36;;;11.55;71.40
76868;BME280;66168;45.478;11.060;2024-02-23T05:29:05;99028.84;;;11.58;71.51
76868;BME280;66168;45.478;11.060;2024-02-23T05:31:46;99018.38;;;11.59;71.67
76868;BME280;66168;45.478;11.060;2024-02-23T05:34:14;99016.39;;;11.60;71.59
76868;BME280;66168;45.478;11.060;2024-02-23T05:36:42;99000.93;;;11.61;71.42
76868;BME280;66168;45.478;11.060;2024-02-23T05:39:09;99001.33;;;11.62;71.18
76868;BME280;66168;45.478;11.060;2024-02-23T05:41:36;99006.77;;;11.64;71.33
76868;BME280;66168;45.478;11.060;2024-02-23T05:44:04;98995.14;;;11.66;71.27
76868;BME280;66168;45.478;11.060;2024-02-23T05:46:33;98972.80;;;11.67;71.23
76868;BME280;66168;45.478;11.060;2024-02-23T05:49:01;98982.84;;;11.68;71.01
76868;BME280;66168;45.478;11.060;2024-02-23T05:51:29;98992.88;;;11.68;71.00
76868;BME280;66168;45.478;11.060;2024-02-23T05:53:57;98991.88;;;11.69;71.22
76868;BME280;66168;45.478;11.060;2024-02-23T05:56:25;98990.98;;;11.70;71.11
76868;BME280;66168;45.478;11.060;2024-02-23T05:58:52;99003.06;;;11.72;71.05
76868;BME280;66168;45.478;11.060;2024-02-23T06:01:19;98990.83;;;11.72;71.35
76868;BME280;66168;45.478;11.060;2024-02-23T06:03:46;98985.83;;;11.74;71.10
76868;BME280;66168;45.478;11.060;2024-02-23T06:06:13;98987.81;;;11.75;70.99
76868;BME280;66168;45.478;11.060;2024-02-23T06:08:41;98986.05;;;11.76;71.22
76868;BME280;66168;45.478;11.060;2024-02-23T06:11:09;98986.64;;;11.78;71.31
76868;BME280;66168;45.478;11.060;2024-02-23T06:13:37;98977.42;;;11.79;71.47
76868;BME280;66168;45.478;11.060;2024-02-23T06:16:05;98974.40;;;11.81;71.55
76868;BME280;66168;45.478;11.060;2024-02-23T06:18:31;98971.75;;;11.82;71.42
76868;BME280;66168;45.478;11.060;2024-02-23T06:20:58;98979.45;;;11.80;71.47
76868;BME280;66168;45.478;11.060;2024-02-23T06:23:25;98977.20;;;11.79;71.56
76868;BME280;66168;45.478;11.060;2024-02-23T06:25:52;98979.89;;;11.80;71.66
76868;BME280;66168;45.478;11.060;2024-02-23T06:28:19;98980.27;;;11.79;71.94
76868;BME280;66168;45.478;11.060;2024-02-23T06:30:46;98986.81;;;11.81;71.36
76868;BME280;66168;45.478;11.060;2024-02-23T06:33:12;98978.95;;;11.82;71.29
76868;BME280;66168;45.478;11.060;2024-02-23T06:35:39;98980.99;;;11.83;71.96
76868;BME280;66168;45.478;11.060;2024-02-23T06:38:06;98976.36;;;11.83;72.10
76868;BME280;66168;45.478;11.060;2024-02-23T06:40:33;98986.13;;;11.83;71.97
76868;BME280;66168;45.478;11.060;2024-02-23T06:43:17;98989.47;;;11.84;72.39
76868;BME280;66168;45.478;11.060;2024-02-23T06:45:48;98987.91;;;11.84;72.47
76868;BME280;66168;45.478;11.060;2024-02-23T06:48:15;98993.66;;;11.82;72.53
76868;BME280;66168;45.478;11.060;2024-02-23T06:50:42;98996.05;;;11.82;72.38
76868;BME280;66168;45.478;11.060;2024-02-23T06:53:10;98991.97;;;11.80;72.78
76868;BME280;66168;45.478;11.060;2024-02-23T06:55:37;99001.52;;;11.81;73.02
76868;BME280;66168;45.478;11.060;2024-02-23T06:58:04;99013.50;;;11.79;73.71
76868;BME280;66168;45.478;11.060;2024-02-23T07:00:31;99015.71;;;11.76;73.30
76868;BME280;66168;45.478;11.060;2024-02-23T07:02:58;99014.98;;;11.75;73.70
76868;BME280;66168;45.478;11.060;2024-02-23T07:05:25;99018.27;;;11.73;73.95
76868;BME280;66168;45.478;11.060;2024-02-23T07:07:52;99026.81;;;11.72;73.63
76868;BME280;66168;45.478;11.060;2024-02-23T07:10:19;99022.65;;;11.70;74.28
76868;BME280;66168;45.478;11.060;2024-02-23T07:12:48;99002.57;;;11.69;74.68
76868;BME280;66168;45.478;11.060;2024-02-23T07:15:15;98999.33;;;11.67;74.46
76868;BME280;66168;45.478;11.060;2024-02-23T07:17:42;99002.98;;;11.64;75.04
76868;BME280;66168;45.478;11.060;2024-02-23T07:20:09;99003.95;;;11.62;74.14
76868;BME280;66168;45.478;11.060;2024-02-23T07:22:36;99010.58;;;11.63;74.42
76868;BME280;66168;45.478;11.060;2024-02-23T07:25:05;99002.55;;;11.62;74.98
76868;BME280;66168;45.478;11.060;2024-02-23T07:27:32;98998.30;;;11.60;74.13
76868;BME280;66168;45.478;11.060;2024-02-23T07:29:59;98995.96;;;11.55;74.66
76868;BME280;66168;45.478;11.060;2024-02-23T07:32:26;98994.27;;;11.52;75.61
76868;BME280;66168;45.478;11.060;2024-02-23T07:34:54;98991.34;;;11.52;75.45
76868;BME280;66168;45.478;11.060;2024-02-23T07:37:20;98993.32;;;11.50;75.61
76868;BME280;66168;45.478;11.060;2024-02-23T07:39:47;98990.90;;;11.50;76.31
76868;BME280;66168;45.478;11.060;2024-02-23T07:42:14;98989.09;;;11.50;75.95
76868;BME280;66168;45.478;11.060;2024-02-23T07:44:45;98990.34;;;11.49;76.49
76868;BME280;66168;45.478;11.060;2024-02-23T07:47:12;98985.49;;;11.49;75.89
76868;BME280;66168;45.478;11.060;2024-02-23T07:49:39;98983.92;;;11.50;75.84
76868;BME280;66168;45.478;11.060;2024-02-23T07:52:07;98991.66;;;11.49;76.21
76868;BME280;66168;45.478;11.060;2024-02-23T07:54:34;98989.02;;;11.43;75.77
76868;BME280;66168;45.478;11.060;2024-02-23T07:57:01;98987.16;;;11.40;76.07
76868;BME280;66168;45.478;11.060;2024-02-23T07:59:28;98980.69;;;11.40;75.50
76868;BME280;66168;45.478;11.060;2024-02-23T08:01:55;98987.17;;;11.39;76.05
76868;BME280;66168;45.478;11.060;2024-02-23T08:04:22;98983.75;;;11.38;76.26
76868;BME280;66168;45.478;11.060;2024-02-23T08:06:49;98980.05;;;11.38;76.84
76868;BME280;66168;45.478;11.060;2024-02-23T08:09:18;98979.40;;;11.39;77.13
76868;BME280;66168;45.478;11.060;2024-02-23T08:11:45;98977.81;;;11.41;76.53
76868;BME280;66168;45.478;11.060;2024-02-23T08:14:13;98975.14;;;11.43;76.98
76868;BME280;66168;45.478;11.060;2024-02-23T08:16:40;98972.17;;;11.43;76.90
76868;BME280;66168;45.478;11.060;2024-02-23T08:19:07;98966.39;;;11.45;76.93
76868;BME280;66168;45.478;11.060;2024-02-23T08:21:35;98962.50;;;11.47;77.05
76868;BME280;66168;45.478;11.060;2024-02-23T08:24:01;98968.25;;;11.49;75.94
76868;BME280;66168;45.478;11.060;2024-02-23T08:26:29;98968.15;;;11.49;76.16
76868;BME280;66168;45.478;11.060;2024-02-23T08:28:56;98968.63;;;11.49;76.70
76868;BME280;66168;45.478;11.060;2024-02-23T08:31:22;98968.73;;;11.50;76.36
76868;BME280;66168;45.478;11.060;2024-02-23T08:33:49;98964.84;;;11.51;76.39
76868;BME280;66168;45.478;11.060;2024-02-23T08:36:16;98965.92;;;11.53;76.50
76868;BME280;66168;45.478;11.060;2024-02-23T08:38:43;98966.94;;;11.55;76.95
76868;BME280;66168;45.478;11.060;2024-02-23T08:41:10;98966.77;;;11.57;76.99
76868;BME280;66168;45.478;11.060;2024-02-23T08:43:36;98968.30;;;11.60;76.86
76868;BME280;66168;45.478;11.060;2024-02-23T08:46:04;98969.90;;;11.62;77.34
76868;BME280;66168;45.478;11.060;2024-02-23T08:48:35;98966.20;;;11.65;77.47
76868;BME280;66168;45.478;11.060;2024-02-23T08:51:02;98961.80;;;11.65;76.79
76868;BME280;66168;45.478;11.060;2024-02-23T08:53:29;98962.81;;;11.68;76.94
76868;BME280;66168;45.478;11.060;2024-02-23T08:55:56;98964.37;;;11.66;76.90
76868;BME280;66168;45.478;11.060;2024-02-23T08:58:24;98964.54;;;11.67;77.12
76868;BME280;66168;45.478;11.060;2024-02-23T09:00:51;98966.58;;;11.67;77.09
76868;BME280;66168;45.478;11.060;2024-02-23T09:03:17;98980.05;;;11.69;76.97
76868;BME280;66168;45.478;11.060;2024-02-23T09:05:44;98983.13;;;11.68;76.70
76868;BME280;66168;45.478;11.060;2024-02-23T09:08:13;98980.64;;;11.69;77.24
76868;BME280;66168;45.478;11.060;2024-02-23T09:10:41;98981.93;;;11.70;76.27
76868;BME280;66168;45.478;11.060;2024-02-23T09:13:08;98983.27;;;11.72;76.49
76868;BME280;66168;45.478;11.060;2024-02-23T09:15:34;98979.69;;;11.72;76.24
76868;BME280;66168;45.478;11.060;2024-02-23T09:18:01;98979.55;;;11.73;76.65
76868;BME280;66168;45.478;11.060;2024-02-23T09:20:28;98973.11;;;11.75;76.50
76868;BME280;66168;45.478;11.060;2024-02-23T09:22:57;98974.66;;;11.75;76.68
76868;BME280;66168;45.478;11.060;2024-02-23T09:25:24;98974.96;;;11.74;76.67
76868;BME280;66168;45.478;11.060;2024-02-23T09:27:51;98985.22;;;11.74;76.62
76868;BME280;66168;45.478;11.060;2024-02-23T09:30:18;98983.42;;;11.72;76.20
76868;BME280;66168;45.478;11.060;2024-02-23T09:32:46;98983.83;;;11.71;76.60
76868;BME280;66168;45.478;11.060;2024-02-23T09:35:13;98984.01;;;11.72;76.65
76868;BME280;66168;45.478;11.060;2024-02-23T09:37:41;98984.56;;;11.75;76.71
76868;BME280;66168;45.478;11.060;2024-02-23T09:40:08;98983.13;;;11.77;77.26
76868;BME280;66168;45.478;11.060;2024-02-23T09:42:35;98981.18;;;11.78;77.15
76868;BME280;66168;45.478;11.060;2024-02-23T09:45:05;98975.37;;;11.81;76.76
76868;BME280;66168;45.478;11.060;2024-02-23T09:47:32;98971.59;;;11.85;76.94
76868;BME280;66168;45.478;11.060;2024-02-23T09:50:00;98967.15;;;11.86;77.08
76868;BME280;66168;45.478;11.060;2024-02-23T09:52:32;98965.55;;;11.88;77.22
76868;BME280;66168;45.478;11.060;2024-02-23T09:54:59;98969.48;;;11.90;77.28
76868;BME280;66168;45.478;11.060;2024-02-23T09:57:26;98968.60;;;11.91;77.55
76868;BME280;66168;45.478;11.060;2024-02-23T09:59:54;98966.86;;;11.92;77.20
76868;BME280;66168;45.478;11.060;2024-02-23T10:02:21;98971.59;;;11.91;77.12
76868;BME280;66168;45.478;11.060;2024-02-23T10:04:49;98970.09;;;11.90;77.46
76868;BME280;66168;45.478;11.060;2024-02-23T10:07:18;98964.15;;;11.90;77.27
76868;BME280;66168;45.478;11.060;2024-02-23T10:09:45;98964.52;;;11.89;77.40
76868;BME280;66168;45.478;11.060;2024-02-23T10:12:12;98968.98;;;11.89;77.81
76868;BME280;66168;45.478;11.060;2024-02-23T10:14:41;98971.75;;;11.91;77.86
76868;BME280;66168;45.478;11.060;2024-02-23T10:17:09;98976.67;;;11.92;76.89
76868;BME280;66168;45.478;11.060;2024-02-23T10:19:36;98964.65;;;11.90;76.78
76868;BME280;66168;45.478;11.060;2024-02-23T10:22:03;98963.70;;;11.90;77.02
76868;BME280;66168;45.478;11.060;2024-02-23T10:24:30;98964.61;;;11.91;77.52
76868;BME280;66168;45.478;11.060;2024-02-23T10:26:57;98964.07;;;11.92;77.48
76868;BME280;66168;45.478;11.060;2024-02-23T10:29:25;98960.46;;;11.93;77.25
76868;BME280;66168;45.478;11.060;2024-02-23T10:31:56;98959.42;;;11.94;77.10
76868;BME280;66168;45.478;11.060;2024-02-23T10:34:24;98961.94;;;11.94;77.10
76868;BME280;66168;45.478;11.060;2024-02-23T10:36:53;98968.91;;;11.94;77.08
76868;BME280;66168;45.478;11.060;2024-02-23T10:39:24;98971.29;;;11.93;77.07
76868;BME280;66168;45.478;11.060;2024-02-23T10:41:56;98972.23;;;11.95;77.45
76868;BME280;66168;45.478;11.060;2024-02-23T10:44:23;98963.00;;;11.98;77.40
76868;BME280;66168;45.478;11.060;2024-02-23T10:46:52;98969.15;;;11.99;78.02
76868;BME280;66168;45.478;11.060;2024-02-23T10:49:23;98973.98;;;11.99;78.71
76868;BME280;66168;45.478;11.060;2024-02-23T10:51:53;98977.71;;;11.99;78.79
76868;BME280;66168;45.478;11.060;2024-02-23T10:54:21;98973.56;;;12.00;78.80
76868;BME280;66168;45.478;11.060;2024-02-23T10:56:52;98964.70;;;12.04;79.18
76868;BME280;66168;45.478;11.060;2024-02-23T10:59:20;98963.69;;;12.08;79.30
76868;BME280;66168;45.478;11.060;2024-02-23T11:01:51;98958.35;;;12.12;78.74
76868;BME280;66168;45.478;11.060;2024-02-23T11:04:22;98952.06;;;12.13;78.30
76868;BME280;66168;45.478;11.060;2024-02-23T11:06:50;98953.35;;;12.16;78.71
76868;BME280;66168;45.478;11.060;2024-02-23T11:09:21;98952.61;;;12.18;79.16
76868;BME280;66168;45.478;11.060;2024-02-23T11:11:58;98956.00;;;12.21;78.92
76868;BME280;66168;45.478;11.060;2024-02-23T11:14:29;98962.48;;;12.23;79.19
76868;BME280;66168;45.478;11.060;2024-02-23T11:16:57;98960.45;;;12.23;79.51
76868;BME280;66168;45.478;11.060;2024-02-23T11:19:35;98958.90;;;12.25;79.66
76868;BME280;66168;45.478;11.060;2024-02-23T11:22:03;98956.52;;;12.28;79.77
76868;BME280;66168;45.478;11.060;2024-02-23T11:24:31;98949.27;;;12.30;79.70
76868;BME280;66168;45.478;11.060;2024-02-23T11:26:59;98941.13;;;12.32;79.60
76868;BME280;66168;45.478;11.060;2024-02-23T11:29:29;98943.27;;;12.34;79.46
76868;BME280;66168;45.478;11.060;2024-02-23T11:31:58;98950.35;;;12.38;79.14
76868;BME280;66168;45.478;11.060;2024-02-23T11:34:28;98949.02;;;12.41;79.64
76868;BME280;66168;45.478;11.060;2024-02-23T11:36:56;98941.06;;;12.42;79.95
76868;BME280;66168;45.478;11.060;2024-02-23T11:39:26;98940.24;;;12.44;79.91
76868;BME280;66168;45.478;11.060;2024-02-23T11:41:53;98940.39;;;12.45;79.74
76868;BME280;66168;45.478;11.060;2024-02-23T11:44:21;98933.53;;;12.46;79.83
76868;BME280;66168;45.478;11.060;2024-02-23T11:46:48;98930.42;;;12.47;79.82
76868;BME280;66168;45.478;11.060;2024-02-23T11:49:15;98927.60;;;12.50;80.15
76868;BME280;66168;45.478;11.060;2024-02-23T11:51:43;98921.02;;;12.53;79.90
76868;BME280;66168;45.478;11.060;2024-02-23T11:54:11;98920.39;;;12.56;80.11
76868;BME280;66168;45.478;11.060;2024-02-23T11:56:40;98917.63;;;12.58;80.24
76868;BME280;66168;45.478;11.060;2024-02-23T11:59:07;98913.16;;;12.59;79.98
76868;BME280;66168;45.478;11.060;2024-02-23T12:01:35;98909.26;;;12.60;79.50
76868;BME280;66168;45.478;11.060;2024-02-23T12:04:02;98906.30;;;12.60;79.36
76868;BME280;66168;45.478;11.060;2024-02-23T12:06:29;98907.14;;;12.61;79.48
76868;BME280;66168;45.478;11.060;2024-02-23T12:09:00;98904.24;;;12.63;79.76
76868;BME280;66168;45.478;11.060;2024-02-23T12:11:27;98893.44;;;12.64;79.64
76868;BME280;66168;45.478;11.060;2024-02-23T12:13:55;98887.73;;;12.66;79.75
76868;BME280;66168;45.478;11.060;2024-02-23T12:16:25;98892.84;;;12.68;79.68
76868;BME280;66168;45.478;11.060;2024-02-23T12:18:55;98896.52;;;12.68;79.33
76868;BME280;66168;45.478;11.060;2024-02-23T12:21:23;98891.64;;;12.65;78.65
76868;BME280;66168;45.478;11.060;2024-02-23T12:23:50;98892.09;;;12.63;78.85
76868;BME280;66168;45.478;11.060;2024-02-23T12:26:18;98886.02;;;12.62;78.97
76868;BME280;66168;45.478;11.060;2024-02-23T12:28:45;98895.40;;;12.61;78.54
76868;BME280;66168;45.478;11.060;2024-02-23T12:31:15;98903.66;;;12.58;78.83
76868;BME280;66168;45.478;11.060;2024-02-23T12:33:42;98903.73;;;12.57;79.37
76868;BME280;66168;45.478;11.060;2024-02-23T12:36:15;98913.98;;;12.54;79.79
76868;BME280;66168;45.478;11.060;2024-02-23T12:38:42;98917.94;;;12.49;80.03
76868;BME280;66168;45.478;11.060;2024-02-23T12:41:09;98918.34;;;12.44;80.60
76868;BME280;66168;45.478;11.060;2024-02-23T12:43:36;98918.92;;;12.41;80.88
76868;BME280;66168;45.478;11.060;2024-02-23T12:46:06;98916.58;;;12.41;80.86
76868;BME280;66168;45.478;11.060;2024-02-23T12:48:35;98912.48;;;12.41;80.78
76868;BME280;66168;45.478;11.060;2024-02-23T12:51:02;98911.33;;;12.42;80.84
76868;BME280;66168;45.478;11.060;2024-02-23T12:53:34;98915.23;;;12.42;80.95